createdAt,value
2018-07-08T00:00:47.581Z,63.80
2018-07-08T00:03:15.205Z,63.80
2018-07-08T00:05:42.801Z,64.10
2018-07-08T00:08:10.457Z,64.20
2018-07-08T00:10:39.255Z,64.40
2018-07-08T00:13:07.881Z,64.40
2018-07-08T00:15:35.457Z,64.70
2018-07-08T00:18:03.110Z,64.70
2018-07-08T00:20:30.773Z,64.90
2018-07-08T00:22:58.367Z,65.10
2018-07-08T00:25:26.233Z,65.20
2018-07-08T00:27:53.943Z,65.10
2018-07-08T00:30:21.649Z,65.20
2018-07-08T00:32:49.211Z,65.30
2018-07-08T00:35:16.809Z,65.50
2018-07-08T00:37:44.401Z,65.70
2018-07-08T00:40:11.999Z,65.80
2018-07-08T00:42:39.642Z,65.90
2018-07-08T00:45:07.269Z,66.10
2018-07-08T00:47:35.018Z,66.30
2018-07-08T00:50:02.688Z,66.40
2018-07-08T00:52:30.321Z,66.50
2018-07-08T00:54:57.945Z,66.70
2018-07-08T00:57:25.537Z,67.00
2018-07-08T00:59:53.265Z,66.90
2018-07-08T01:02:20.849Z,67.10
2018-07-08T01:04:48.459Z,67.20
2018-07-08T01:07:16.141Z,67.30
2018-07-08T01:09:43.714Z,67.70
2018-07-08T01:12:11.289Z,67.80
2018-07-08T01:14:38.859Z,67.90
2018-07-08T01:17:06.477Z,68.20
2018-07-08T01:19:34.139Z,68.20
2018-07-08T01:22:01.712Z,68.20
2018-07-08T01:24:29.305Z,68.40
2018-07-08T01:26:56.962Z,68.50
2018-07-08T01:29:24.575Z,68.60
2018-07-08T01:31:52.436Z,68.90
2018-07-08T01:34:20.013Z,69.20
2018-07-08T01:36:47.581Z,69.40
2018-07-08T01:39:15.391Z,70.30
2018-07-08T01:41:42.943Z,69.70
2018-07-08T01:44:10.598Z,69.90
2018-07-08T01:46:38.170Z,69.80
2018-07-08T01:49:05.801Z,70.10
2018-07-08T01:51:33.400Z,70.20
2018-07-08T01:54:01.010Z,70.40
2018-07-08T01:56:28.689Z,70.60
2018-07-08T01:58:56.550Z,70.60
2018-07-08T02:01:24.220Z,70.60
2018-07-08T02:03:52.230Z,70.70
2018-07-08T02:06:19.833Z,70.40
2018-07-08T02:08:47.754Z,70.90
2018-07-08T02:11:15.862Z,70.90
2018-07-08T02:13:43.424Z,71.00
2018-07-08T02:16:11.026Z,70.80
2018-07-08T02:18:38.752Z,70.90
2018-07-08T02:21:06.338Z,71.00
2018-07-08T02:23:33.938Z,71.10
2018-07-08T02:26:01.591Z,71.10
2018-07-08T02:28:29.748Z,71.20
2018-07-08T02:30:57.430Z,71.30
2018-07-08T02:33:25.541Z,71.40
2018-07-08T02:35:53.497Z,71.40
2018-07-08T02:38:21.097Z,71.30
2018-07-08T02:40:49.145Z,71.50
2018-07-08T02:43:16.729Z,72.00
2018-07-08T02:45:44.291Z,71.50
2018-07-08T02:48:11.913Z,71.60
2018-07-08T02:50:39.844Z,71.70
2018-07-08T02:53:07.409Z,71.90
2018-07-08T02:55:35.007Z,72.20
2018-07-08T02:58:02.598Z,72.40
2018-07-08T03:00:30.176Z,72.70
2018-07-08T03:02:57.767Z,72.80
2018-07-08T03:05:25.359Z,72.30
2018-07-08T03:07:53.169Z,73.10
2018-07-08T03:10:20.922Z,73.30
2018-07-08T03:12:48.944Z,73.40
2018-07-08T03:15:16.637Z,73.60
2018-07-08T03:17:44.246Z,73.50
2018-07-08T03:20:11.989Z,73.70
2018-07-08T03:22:39.591Z,73.80
2018-07-08T03:25:07.349Z,74.00
2018-07-08T03:27:34.857Z,74.00
2018-07-08T03:30:02.432Z,74.20
2018-07-08T03:32:30.125Z,74.10
2018-07-08T03:34:57.819Z,74.00
2018-07-08T03:37:25.422Z,74.10
2018-07-08T03:39:53.045Z,74.10
2018-07-08T03:42:20.585Z,74.10
2018-07-08T03:44:48.535Z,74.00
2018-07-08T03:47:16.953Z,73.70
2018-07-08T03:49:44.513Z,73.50
2018-07-08T03:52:12.119Z,73.40
2018-07-08T03:54:39.783Z,73.10
2018-07-08T03:57:07.365Z,73.20
2018-07-08T03:59:34.926Z,73.10
2018-07-08T04:02:02.557Z,73.10
2018-07-08T04:04:30.639Z,73.10
2018-07-08T04:06:58.255Z,73.00
2018-07-08T04:09:25.854Z,72.90
2018-07-08T04:11:53.441Z,72.70
2018-07-08T04:14:20.987Z,72.50
2018-07-08T04:16:48.833Z,72.40
2018-07-08T04:19:16.412Z,72.30
2018-07-08T04:21:44.006Z,72.10
2018-07-08T04:24:11.785Z,71.70
2018-07-08T04:26:39.465Z,71.50
2018-07-08T04:29:07.017Z,71.10
2018-07-08T04:31:34.657Z,71.00
2018-07-08T04:34:02.246Z,70.40
2018-07-08T04:36:29.788Z,70.10
2018-07-08T04:38:57.402Z,68.80
2018-07-08T04:41:24.943Z,65.70
2018-07-08T04:43:52.833Z,62.80
2018-07-08T04:46:20.496Z,60.10
2018-07-08T04:48:48.037Z,57.30
2018-07-08T04:51:15.590Z,54.40
2018-07-08T04:53:43.215Z,52.60
2018-07-08T04:56:10.800Z,50.80
2018-07-08T04:58:38.492Z,49.30
2018-07-08T05:01:06.149Z,48.90
2018-07-08T05:03:33.748Z,48.50
2018-07-08T05:06:01.303Z,47.40
2018-07-08T05:08:29.079Z,45.70
2018-07-08T05:10:56.610Z,45.00
2018-07-08T05:13:24.191Z,44.00
2018-07-08T05:15:51.981Z,43.10
2018-07-08T05:18:19.824Z,42.50
2018-07-08T05:20:47.359Z,42.00
2018-07-08T05:23:14.970Z,41.20
2018-07-08T05:25:42.634Z,40.40
2018-07-08T05:28:10.190Z,40.10
2018-07-08T05:30:37.772Z,39.60
2018-07-08T05:33:05.575Z,39.20
2018-07-08T05:35:33.233Z,39.40
2018-07-08T05:38:00.918Z,39.50
2018-07-08T05:40:28.556Z,39.70
2018-07-08T05:42:56.192Z,40.00
2018-07-08T05:45:23.812Z,40.50
2018-07-08T05:47:51.506Z,40.70
2018-07-08T05:50:19.161Z,41.50
2018-07-08T05:52:46.762Z,41.70
2018-07-08T05:55:14.435Z,42.00
2018-07-08T05:57:42.400Z,42.30
2018-07-08T06:00:10.154Z,42.90
2018-07-08T06:02:37.748Z,43.20
2018-07-08T06:05:05.449Z,43.20
2018-07-08T06:07:33.063Z,43.80
2018-07-08T06:10:00.668Z,44.40
2018-07-08T06:12:28.390Z,44.70
2018-07-08T06:14:55.969Z,44.90
2018-07-08T06:17:23.653Z,44.10
2018-07-08T06:19:51.198Z,44.00
2018-07-08T06:22:18.927Z,44.20
2018-07-08T06:24:46.512Z,44.10
2018-07-08T06:27:14.123Z,44.10
2018-07-08T06:29:41.775Z,43.80
2018-07-08T06:34:36.852Z,44.00
2018-07-08T06:37:04.634Z,43.50
2018-07-08T06:39:32.312Z,43.60
2018-07-08T06:41:59.838Z,43.10
2018-07-08T06:44:27.461Z,42.60
2018-07-08T06:46:55.057Z,43.10
2018-07-08T06:49:22.633Z,42.80
2018-07-08T06:51:50.219Z,42.00
2018-07-08T06:54:17.816Z,41.90
2018-07-08T06:56:45.404Z,41.90
2018-07-08T06:59:13.023Z,40.70
2018-07-08T07:01:40.636Z,40.50
2018-07-08T07:04:08.424Z,40.10
2018-07-08T07:06:36.008Z,39.30
2018-07-08T07:09:05.178Z,38.50
2018-07-08T07:11:32.740Z,37.70
2018-07-08T07:14:00.330Z,37.10
2018-07-08T07:16:27.891Z,36.30
2018-07-08T07:18:55.447Z,35.70
2018-07-08T07:21:23.097Z,35.50
2018-07-08T07:23:50.669Z,35.00
2018-07-08T07:26:18.315Z,34.90
2018-07-08T07:31:13.508Z,34.60
2018-07-08T07:33:41.106Z,34.20
2018-07-08T07:36:08.881Z,33.60
2018-07-08T07:38:36.551Z,32.70
2018-07-08T07:41:04.118Z,32.40
2018-07-08T07:43:31.729Z,32.10
2018-07-08T07:45:59.429Z,32.00
2018-07-08T07:48:26.969Z,31.60
2018-07-08T07:50:54.559Z,31.50
2018-07-08T07:53:22.129Z,30.80
2018-07-08T07:55:49.835Z,30.30
2018-07-08T07:58:17.509Z,29.70
2018-07-08T08:00:45.108Z,29.20
2018-07-08T08:03:12.669Z,28.50
2018-07-08T08:05:40.289Z,28.10
2018-07-08T08:08:07.892Z,27.50
2018-07-08T08:10:35.559Z,26.70
2018-07-08T08:13:03.142Z,26.60
2018-07-08T08:15:30.730Z,26.40
2018-07-08T08:17:58.321Z,26.20
2018-07-08T08:20:26.000Z,26.00
2018-07-08T08:22:53.542Z,25.50
2018-07-08T08:25:21.194Z,25.00
2018-07-08T08:27:48.894Z,24.70
2018-07-08T08:30:16.470Z,24.90
2018-07-08T08:32:44.111Z,25.40
2018-07-08T08:35:12.925Z,25.70
2018-07-08T08:37:43.618Z,25.20
2018-07-08T08:40:12.016Z,24.80
2018-07-08T08:42:39.580Z,24.60
2018-07-08T08:45:08.908Z,24.80
2018-07-08T08:47:36.566Z,24.90
2018-07-08T08:50:04.769Z,25.00
2018-07-08T08:52:32.418Z,24.70
2018-07-08T08:54:59.998Z,24.30
2018-07-08T08:57:27.601Z,24.10
2018-07-08T08:59:55.711Z,24.50
2018-07-08T09:02:23.353Z,25.20
2018-07-08T09:04:50.931Z,26.60
2018-07-08T09:07:19.665Z,28.30
2018-07-08T09:09:47.281Z,29.80
2018-07-08T09:12:15.183Z,31.80
2018-07-08T09:14:42.751Z,33.80
2018-07-08T09:17:10.667Z,35.30
2018-07-08T09:19:38.683Z,36.30
2018-07-08T09:22:07.137Z,37.40
2018-07-08T09:24:35.077Z,38.50
2018-07-08T09:27:02.919Z,38.40
2018-07-08T09:29:30.503Z,38.60
2018-07-08T09:31:58.236Z,39.20
2018-07-08T09:34:25.957Z,39.60
2018-07-08T09:36:54.049Z,40.50
2018-07-08T09:39:21.736Z,40.80
2018-07-08T09:41:49.401Z,40.30
2018-07-08T09:46:46.351Z,40.90
2018-07-08T09:49:14.329Z,40.90
2018-07-08T09:51:42.160Z,40.70
2018-07-08T09:54:09.868Z,40.50
2018-07-08T09:56:37.510Z,41.10
2018-07-08T09:59:05.122Z,39.30
2018-07-08T10:01:38.302Z,39.40
2018-07-08T10:04:06.426Z,39.00
2018-07-08T10:06:34.038Z,38.70
2018-07-08T10:09:01.640Z,38.50
2018-07-08T10:11:29.203Z,36.90
2018-07-08T10:13:56.843Z,35.70
2018-07-08T10:16:24.404Z,36.40
2018-07-08T10:18:51.943Z,35.00
2018-07-08T10:21:19.643Z,35.00
2018-07-08T10:23:47.248Z,34.30
2018-07-08T10:26:14.909Z,33.90
2018-07-08T10:28:42.479Z,33.00
2018-07-08T10:31:11.097Z,32.60
2018-07-08T10:33:50.193Z,32.30
2018-07-08T10:36:17.974Z,32.20
2018-07-08T10:38:45.567Z,32.40
2018-07-08T10:41:13.179Z,32.50
2018-07-08T10:43:40.804Z,30.90
2018-07-08T10:46:08.353Z,30.70
2018-07-08T10:48:36.067Z,30.70
2018-07-08T10:51:03.673Z,30.50
2018-07-08T10:53:31.337Z,30.50
2018-07-08T10:55:58.993Z,30.50
2018-07-08T10:58:26.687Z,30.80
2018-07-08T11:00:54.265Z,30.80
2018-07-08T11:03:21.929Z,29.10
2018-07-08T11:05:49.623Z,29.20
2018-07-08T11:08:17.231Z,29.30
2018-07-08T11:10:44.904Z,29.70
2018-07-08T11:13:12.531Z,30.10
2018-07-08T11:15:40.302Z,30.30
2018-07-08T11:18:07.896Z,30.30
2018-07-08T11:20:35.550Z,30.40
2018-07-08T11:23:03.149Z,30.60
2018-07-08T11:27:58.260Z,31.40
2018-07-08T11:30:25.855Z,31.60
2018-07-08T11:32:53.449Z,31.70
2018-07-08T11:35:21.117Z,31.60
2018-07-08T11:37:48.747Z,31.90
2018-07-08T11:40:16.312Z,31.70
2018-07-08T11:42:44.169Z,31.90
2018-07-08T11:45:11.797Z,32.20
2018-07-08T11:47:39.365Z,32.30
2018-07-08T11:50:06.971Z,32.30
2018-07-08T11:52:34.550Z,32.40
2018-07-08T11:55:02.199Z,32.30
2018-07-08T11:57:30.017Z,32.40
2018-07-08T11:59:57.627Z,32.90
2018-07-08T12:02:25.313Z,32.30
2018-07-08T12:04:52.947Z,31.80
2018-07-08T12:07:20.563Z,31.80
2018-07-08T12:09:48.254Z,31.90
2018-07-08T12:12:15.917Z,32.10
2018-07-08T12:14:43.481Z,32.30
2018-07-08T12:17:11.094Z,32.50
2018-07-08T12:19:38.962Z,32.90
2018-07-08T12:22:06.632Z,33.10
2018-07-08T12:24:34.239Z,33.30
2018-07-08T12:27:01.846Z,33.70
2018-07-08T12:29:29.547Z,33.20
2018-07-08T12:31:57.182Z,33.10
2018-07-08T12:34:24.849Z,33.30
2018-07-08T12:36:52.475Z,32.90
2018-07-08T12:39:20.066Z,32.30
2018-07-08T12:41:47.761Z,32.80
2018-07-08T12:44:15.450Z,32.60
2018-07-08T12:46:43.083Z,31.90
2018-07-08T12:49:10.735Z,32.10
2018-07-08T12:51:38.347Z,31.90
2018-07-08T12:54:06.027Z,30.70
2018-07-08T12:56:33.634Z,30.80
2018-07-08T12:59:01.292Z,31.40
2018-07-08T13:01:28.853Z,31.40
2018-07-08T13:03:56.459Z,31.60
2018-07-08T13:06:24.157Z,32.20
2018-07-08T13:08:51.619Z,32.30
2018-07-08T13:11:19.221Z,31.10
2018-07-08T13:13:46.841Z,31.00
2018-07-08T13:16:14.453Z,31.20
2018-07-08T13:18:42.136Z,31.90
2018-07-08T13:21:09.774Z,32.20
2018-07-08T13:23:37.405Z,32.00
2018-07-08T13:26:05.091Z,31.90
2018-07-08T13:28:32.737Z,31.80
2018-07-08T13:31:00.389Z,32.20
2018-07-08T13:33:27.971Z,31.90
2018-07-08T13:35:55.547Z,31.90
2018-07-08T13:38:23.173Z,32.30
2018-07-08T13:40:50.829Z,31.90
2018-07-08T13:43:18.385Z,32.30
2018-07-08T13:45:46.074Z,32.40
2018-07-08T13:48:13.751Z,32.40
2018-07-08T13:50:41.729Z,32.60
2018-07-08T13:53:09.625Z,33.10
2018-07-08T13:55:37.353Z,33.00
2018-07-08T13:58:04.963Z,32.90
2018-07-08T14:00:32.587Z,33.20
2018-07-08T14:03:00.222Z,33.10
2018-07-08T14:05:27.804Z,33.50
2018-07-08T14:07:55.629Z,33.40
2018-07-08T14:10:23.289Z,33.60
2018-07-08T14:12:50.970Z,34.10
2018-07-08T14:15:18.640Z,34.20
2018-07-08T14:17:46.280Z,34.30
2018-07-08T14:20:13.934Z,33.90
2018-07-08T14:22:41.556Z,34.00
2018-07-08T14:25:09.202Z,34.50
2018-07-08T14:27:36.893Z,34.20
2018-07-08T14:30:05.044Z,33.60
2018-07-08T14:32:32.797Z,33.50
2018-07-08T14:35:00.422Z,33.70
2018-07-08T14:37:28.040Z,33.60
2018-07-08T14:39:55.676Z,33.70
2018-07-08T14:42:23.276Z,33.60
2018-07-08T14:44:50.880Z,33.60
2018-07-08T14:49:46.130Z,35.10
2018-07-08T14:52:13.702Z,34.60
2018-07-08T14:54:41.404Z,34.30
2018-07-08T14:57:09.090Z,34.10
2018-07-08T14:59:36.770Z,34.20
2018-07-08T15:02:04.580Z,34.50
2018-07-08T15:06:59.766Z,34.70
2018-07-08T15:09:27.510Z,34.90
2018-07-08T15:11:55.136Z,35.00
2018-07-08T15:14:22.950Z,35.10
2018-07-08T15:16:50.635Z,35.30
2018-07-08T15:19:18.374Z,34.70
2018-07-08T15:21:46.138Z,34.70
2018-07-08T15:24:13.753Z,34.40
2018-07-08T15:26:41.438Z,34.40
2018-07-08T15:29:09.062Z,34.90
2018-07-08T15:34:05.307Z,35.10
2018-07-08T15:36:33.070Z,35.00
2018-07-08T15:39:01.422Z,35.10
2018-07-08T15:41:29.150Z,35.60
2018-07-08T15:43:56.750Z,35.30
2018-07-08T15:46:24.375Z,35.20
2018-07-08T15:48:52.031Z,35.20
2018-07-08T15:51:19.639Z,35.20
2018-07-08T15:53:47.333Z,35.30
2018-07-08T15:56:14.927Z,35.30
2018-07-08T15:58:42.543Z,35.20
2018-07-08T16:03:37.639Z,34.90
2018-07-08T16:06:05.276Z,35.40
2018-07-08T16:08:32.877Z,35.30
2018-07-08T16:11:00.436Z,35.30
2018-07-08T16:13:28.127Z,35.50
2018-07-08T16:15:56.139Z,35.40
2018-07-08T16:18:23.840Z,35.50
2018-07-08T16:20:52.746Z,35.60
2018-07-08T16:23:20.842Z,35.70
2018-07-08T16:25:48.588Z,35.70
2018-07-08T16:28:16.127Z,35.70
2018-07-08T16:30:43.801Z,35.80
2018-07-08T16:33:11.369Z,35.70
2018-07-08T16:38:10.719Z,35.70
2018-07-08T16:40:38.408Z,35.70
2018-07-08T16:43:06.084Z,36.00
2018-07-08T16:45:33.720Z,35.90
2018-07-08T16:48:01.426Z,36.50
2018-07-08T16:50:29.443Z,35.90
2018-07-08T16:52:57.067Z,35.90
2018-07-08T16:55:24.666Z,36.00
2018-07-08T17:00:19.910Z,35.80
2018-07-08T17:02:47.698Z,35.90
2018-07-08T17:05:15.526Z,35.80
2018-07-08T17:07:43.110Z,35.70
2018-07-08T17:12:38.312Z,36.20
2018-07-08T17:15:06.125Z,36.10
2018-07-08T17:17:34.235Z,36.30
2018-07-08T17:20:01.977Z,35.90
2018-07-08T17:22:29.541Z,36.10
2018-07-08T17:24:57.196Z,36.20
2018-07-08T17:27:24.822Z,36.20
2018-07-08T17:29:52.506Z,36.40
2018-07-08T17:32:20.130Z,36.40
2018-07-08T17:34:47.788Z,36.80
2018-07-08T17:37:15.398Z,36.90
2018-07-08T17:39:43.014Z,37.00
2018-07-08T17:42:11.087Z,37.40
2018-07-08T17:44:40.059Z,37.70
2018-07-08T17:47:07.723Z,38.00
2018-07-08T17:49:35.575Z,38.00
2018-07-08T17:52:03.146Z,38.20
2018-07-08T17:54:30.806Z,38.00
2018-07-08T17:56:58.400Z,38.00
2018-07-08T17:59:26.130Z,38.30
2018-07-08T18:01:53.987Z,38.60
2018-07-08T18:04:21.671Z,38.80
2018-07-08T18:06:49.290Z,38.80
2018-07-08T18:09:16.924Z,39.00
2018-07-08T18:11:44.582Z,39.20
2018-07-08T18:14:12.177Z,39.40
2018-07-08T18:16:39.774Z,39.60
2018-07-08T18:19:07.439Z,39.70
2018-07-08T18:21:35.200Z,39.60
2018-07-08T18:24:03.023Z,40.00
2018-07-08T18:26:30.842Z,40.10
2018-07-08T18:28:58.494Z,40.30
2018-07-08T18:31:26.195Z,40.50
2018-07-08T18:33:53.784Z,40.60
2018-07-08T18:36:22.815Z,40.50
2018-07-08T18:38:50.746Z,40.30
2018-07-08T18:41:18.345Z,40.10
2018-07-08T18:43:45.984Z,40.10
2018-07-08T18:46:13.641Z,40.20
2018-07-08T18:48:41.268Z,40.60
2018-07-08T18:53:36.603Z,41.20
2018-07-08T18:56:04.346Z,41.50
2018-07-08T18:58:32.015Z,41.70
2018-07-08T19:00:59.594Z,41.80
2018-07-08T19:03:27.266Z,42.10
2018-07-08T19:05:54.937Z,42.20
2018-07-08T19:08:22.615Z,42.50
2018-07-08T19:10:50.332Z,42.70
2018-07-08T19:13:18.627Z,42.70
2018-07-08T19:15:46.339Z,42.80
2018-07-08T19:18:13.978Z,42.90
2018-07-08T19:20:41.611Z,43.30
2018-07-08T19:23:09.335Z,43.50
2018-07-08T19:25:37.163Z,43.80
2018-07-08T19:28:04.951Z,43.70
2018-07-08T19:30:32.596Z,44.40
2018-07-08T19:33:00.283Z,44.70
2018-07-08T19:35:27.900Z,45.00
2018-07-08T19:37:55.497Z,45.00
2018-07-08T19:40:23.378Z,45.20
2018-07-08T19:42:51.529Z,45.20
2018-07-08T19:45:19.267Z,45.40
2018-07-08T19:47:47.049Z,45.50
2018-07-08T19:50:14.704Z,45.70
2018-07-08T19:52:42.352Z,46.00
2018-07-08T19:55:10.057Z,46.20
2018-07-08T19:57:37.911Z,46.30
2018-07-08T20:00:06.053Z,46.50
2018-07-08T20:02:33.840Z,46.60
2018-07-08T20:05:01.526Z,46.80
2018-07-08T20:07:29.183Z,47.00
2018-07-08T20:09:56.840Z,47.10
2018-07-08T20:12:24.514Z,47.20
2018-07-08T20:14:52.270Z,47.40
2018-07-08T20:17:20.374Z,47.60
2018-07-08T20:22:15.684Z,47.90
2018-07-08T20:24:43.814Z,47.90
2018-07-08T20:27:11.462Z,48.10
2018-07-08T20:29:39.114Z,48.10
2018-07-08T20:34:34.330Z,48.50
2018-07-08T20:37:01.932Z,48.60
2018-07-08T20:39:29.584Z,48.80
2018-07-08T20:41:57.238Z,48.90
2018-07-08T20:44:24.838Z,49.00
2018-07-08T20:49:20.148Z,50.00
2018-07-08T20:51:47.818Z,49.40
2018-07-08T20:54:15.510Z,49.50
2018-07-08T20:56:43.193Z,49.50
2018-07-08T20:59:10.834Z,49.60
2018-07-08T21:01:39.438Z,49.60
2018-07-08T21:04:07.050Z,49.60
2018-07-08T21:06:34.748Z,49.80
2018-07-08T21:09:02.528Z,49.80
2018-07-08T21:11:30.162Z,50.20
2018-07-08T21:13:57.931Z,50.40
2018-07-08T21:16:25.650Z,50.50
2018-07-08T21:18:53.557Z,50.60
2018-07-08T21:21:21.118Z,50.80
2018-07-08T21:23:48.996Z,50.90
2018-07-08T21:26:16.575Z,51.00
2018-07-08T21:31:11.880Z,51.50
2018-07-08T21:33:39.982Z,51.60
2018-07-08T21:36:08.253Z,51.70
2018-07-08T21:38:35.852Z,51.70
2018-07-08T21:41:03.964Z,51.80
2018-07-08T21:43:31.619Z,51.90
2018-07-08T21:45:59.357Z,52.00
2018-07-08T21:48:26.921Z,52.00
2018-07-08T21:50:54.582Z,52.20
2018-07-08T21:53:22.233Z,52.30
2018-07-08T21:55:49.834Z,52.40
2018-07-08T21:58:17.574Z,52.50
2018-07-08T22:01:21.179Z,52.50
2018-07-08T22:03:49.615Z,52.50
2018-07-08T22:06:18.189Z,52.30
2018-07-08T22:08:45.885Z,52.50
2018-07-08T22:11:13.464Z,52.60
2018-07-08T22:13:41.671Z,52.60
2018-07-08T22:18:37.360Z,52.80
2018-07-08T22:21:05.484Z,52.80
2018-07-08T22:23:33.947Z,52.80
2018-07-08T22:26:02.229Z,52.90
2018-07-08T22:28:30.367Z,53.10
2018-07-08T22:30:58.030Z,53.10
2018-07-08T22:33:25.659Z,53.20
2018-07-08T22:35:53.226Z,53.10
2018-07-08T22:38:20.846Z,53.20
2018-07-08T22:40:48.414Z,53.20
2018-07-08T22:45:43.600Z,53.20
2018-07-08T22:48:11.250Z,53.20
2018-07-08T22:50:38.847Z,53.10
2018-07-08T22:53:06.593Z,53.00
2018-07-08T22:55:34.620Z,53.10
2018-07-08T22:58:02.729Z,53.00
2018-07-08T23:00:41.961Z,52.70
2018-07-08T23:03:49.097Z,52.80
2018-07-08T23:06:18.137Z,52.90
2018-07-08T23:08:45.868Z,52.90
2018-07-08T23:11:13.679Z,53.00
2018-07-08T23:13:41.405Z,53.00
2018-07-08T23:16:09.474Z,52.90
2018-07-08T23:18:37.189Z,52.90
2018-07-08T23:21:04.817Z,53.00
2018-07-08T23:26:07.110Z,53.00
2018-07-08T23:28:35.749Z,53.10
2018-07-08T23:31:03.949Z,53.20
2018-07-08T23:33:31.730Z,53.30
2018-07-08T23:36:00.167Z,53.40
2018-07-08T23:38:28.005Z,53.60
2018-07-08T23:40:55.828Z,53.40
2018-07-08T23:43:23.460Z,53.70
2018-07-08T23:45:51.319Z,53.50
2018-07-08T23:48:18.966Z,53.20
2018-07-08T23:50:46.764Z,53.10
2018-07-08T23:53:14.871Z,53.20
2018-07-08T23:55:42.682Z,53.20
2018-07-08T23:58:10.265Z,53.20
